Time;durP1;ratioP1;P1;durP2;ratioP2;P2;SDS_P1;SDS_P2;PMS_P1;PMS_P2;Temp;Humidity;BMP_temperature;BMP_pressure;BME280_temperature;BME280_humidity;BME280_pressure;Samples;Min_cycle;Max_cycle;Signal;HPM_P1;HPM_P2
2023/05/23 00:01:44;;;;;;;43.65;28.02;;;14.60;99.90;;;;;;5053094;28;20538;-75
2023/05/23 00:04:15;;;;;;;45.03;27.00;;;14.60;99.90;;;;;;5051796;28;20508;-75
2023/05/23 00:06:45;;;;;;;48.92;29.02;;;14.60;99.90;;;;;;5052587;28;20045;-76
2023/05/23 00:09:15;;;;;;;39.00;26.40;;;14.60;99.90;;;;;;5034840;28;20056;-75
2023/05/23 00:11:44;;;;;;;46.55;28.95;;;14.60;99.90;;;;;;5051687;28;20496;-74
2023/05/23 00:14:18;;;;;;;46.03;28.27;;;14.50;99.90;;;;;;5053930;28;20045;-75
2023/05/23 00:16:46;;;;;;;52.63;28.70;;;14.50;99.90;;;;;;5038783;28;20067;-76
2023/05/23 00:19:15;;;;;;;47.67;27.38;;;14.50;99.90;;;;;;5055589;28;20393;-75
2023/05/23 00:21:47;;;;;;;54.15;29.80;;;14.50;99.90;;;;;;5055189;28;20041;-75
2023/05/23 00:24:13;;;;;;;49.58;28.70;;;14.50;99.90;;;;;;5056829;28;20041;-75
2023/05/23 00:26:39;;;;;;;45.58;27.95;;;14.40;99.90;;;;;;5056783;28;20062;-75
2023/05/23 00:29:05;;;;;;;41.22;25.45;;;14.40;99.90;;;;;;5038772;28;20124;-74
2023/05/23 00:31:30;;;;;;;41.60;25.70;;;14.40;99.90;;;;;;5055090;28;20041;-75
2023/05/23 00:33:56;;;;;;;37.72;23.92;;;14.40;99.90;;;;;;5022072;28;20047;-75
2023/05/23 00:36:22;;;;;;;39.10;25.08;;;14.40;99.90;;;;;;5054433;28;20564;-75
2023/05/23 00:38:48;;;;;;;40.17;25.42;;;14.50;99.90;;;;;;5055245;28;20123;-75
2023/05/23 00:41:15;;;;;;;41.45;25.58;;;14.40;99.90;;;;;;5054921;28;20066;-75
2023/05/23 00:43:41;;;;;;;38.45;25.17;;;14.40;99.90;;;;;;5056140;28;20040;-75
2023/05/23 00:46:08;;;;;;;43.63;26.55;;;14.40;99.90;;;;;;5055094;28;20041;-75
2023/05/23 00:48:33;;;;;;;35.97;23.75;;;14.30;99.90;;;;;;5038236;28;20033;-76
2023/05/23 00:50:59;;;;;;;36.08;24.40;;;14.30;99.90;;;;;;5021997;28;20036;-75
2023/05/23 00:53:26;;;;;;;34.10;22.75;;;14.30;99.90;;;;;;5037963;28;20048;-75
2023/05/23 00:55:52;;;;;;;38.42;24.08;;;14.30;99.90;;;;;;5054916;28;20125;-76
2023/05/23 00:58:18;;;;;;;35.33;24.15;;;14.30;99.90;;;;;;5037989;28;20096;-76
2023/05/23 01:00:44;;;;;;;37.50;24.88;;;14.30;99.90;;;;;;5054652;28;20076;-76
2023/05/23 01:03:16;;;;;;;32.80;23.10;;;14.30;99.90;;;;;;5054541;28;20052;-76
2023/05/23 01:05:43;;;;;;;32.33;23.00;;;14.30;99.90;;;;;;5056075;28;20037;-76
2023/05/23 01:08:09;;;;;;;29.13;21.65;;;14.30;99.90;;;;;;5053927;28;20037;-76
2023/05/23 01:10:35;;;;;;;29.08;21.48;;;14.30;99.90;;;;;;5054254;28;20572;-77
2023/05/23 01:13:30;;;;;;;30.35;22.25;;;14.30;99.90;;;;;;5055829;28;20048;-77
2023/05/23 01:16:05;;;;;;;31.88;21.90;;;14.40;99.90;;;;;;5055572;28;20459;-76
2023/05/23 01:18:42;;;;;;;28.98;21.90;;;14.30;99.90;;;;;;5054310;28;20055;-76
2023/05/23 01:21:15;;;;;;;31.25;22.95;;;14.30;99.90;;;;;;5055771;28;20037;-76
2023/05/23 01:23:51;;;;;;;27.65;20.33;;;14.30;99.90;;;;;;5054495;28;20520;-76
2023/05/23 01:26:26;;;;;;;25.33;18.88;;;14.30;99.90;;;;;;5053552;28;20049;-76
2023/05/23 01:29:04;;;;;;;23.88;19.20;;;14.20;99.90;;;;;;5054227;28;20037;-76
2023/05/23 01:31:32;;;;;;;22.83;17.77;;;14.30;99.90;;;;;;5054128;28;20048;-76
2023/05/23 01:33:58;;;;;;;22.58;18.10;;;14.30;99.90;;;;;;5037707;28;20495;-76
2023/05/23 01:36:25;;;;;;;23.23;17.60;;;14.30;99.90;;;;;;5054519;28;20128;-76
2023/05/23 01:38:50;;;;;;;23.90;17.50;;;14.30;99.90;;;;;;5037537;28;20037;-76
2023/05/23 01:41:16;;;;;;;22.35;17.40;;;14.30;99.90;;;;;;5054212;28;20048;-76
2023/05/23 01:43:42;;;;;;;25.00;17.23;;;14.30;99.90;;;;;;5037649;28;20079;-76
2023/05/23 01:46:09;;;;;;;27.23;18.83;;;14.30;99.90;;;;;;5053718;28;20037;-76
2023/05/23 01:48:36;;;;;;;29.70;19.48;;;14.30;99.90;;;;;;5053809;28;20041;-76
2023/05/23 01:51:02;;;;;;;32.47;22.08;;;14.30;99.90;;;;;;5037229;28;20041;-76
2023/05/23 01:53:30;;;;;;;30.90;23.38;;;14.20;99.90;;;;;;5054832;28;20037;-76
2023/05/23 01:55:56;;;;;;;33.78;23.48;;;14.10;99.90;;;;;;5053711;28;20037;-76
2023/05/23 01:58:30;;;;;;;31.77;24.20;;;14.10;99.90;;;;;;5054745;28;20040;-76
2023/05/23 02:00:57;;;;;;;36.53;24.98;;;14.10;99.90;;;;;;5053519;28;20051;-76
2023/05/23 02:03:23;;;;;;;34.92;24.48;;;14.10;99.90;;;;;;5054962;28;20049;-76
2023/05/23 02:05:48;;;;;;;33.42;23.67;;;14.00;99.90;;;;;;5054873;28;20127;-76
2023/05/23 02:08:14;;;;;;;33.15;23.13;;;14.00;99.90;;;;;;5052997;28;20045;-76
2023/05/23 02:10:40;;;;;;;31.73;22.75;;;14.00;99.90;;;;;;5036900;28;20072;-75
2023/05/23 02:13:05;;;;;;;29.50;21.90;;;14.00;99.90;;;;;;5053914;28;20041;-75
2023/05/23 02:15:31;;;;;;;27.10;20.55;;;14.00;99.90;;;;;;5036739;28;20402;-75
2023/05/23 02:17:57;;;;;;;26.02;19.85;;;14.00;99.90;;;;;;5053386;28;20037;-76
2023/05/23 02:20:23;;;;;;;27.77;19.63;;;13.90;99.90;;;;;;5053168;28;20126;-75
2023/05/23 02:22:48;;;;;;;26.73;18.48;;;13.80;99.90;;;;;;5053416;28;20041;-75
2023/05/23 02:25:14;;;;;;;25.48;17.55;;;13.80;99.90;;;;;;5054445;28;20037;-76
2023/05/23 02:27:40;;;;;;;26.02;16.42;;;13.80;99.90;;;;;;5052983;28;20111;-75
2023/05/23 02:30:06;;;;;;;26.58;17.55;;;13.80;99.90;;;;;;5053187;28;20033;-75
2023/05/23 02:32:32;;;;;;;26.42;17.67;;;13.80;99.90;;;;;;5053056;28;20094;-75
2023/05/23 02:34:58;;;;;;;24.83;17.40;;;13.80;99.90;;;;;;5053086;28;20037;-75
2023/05/23 02:37:24;;;;;;;24.48;15.73;;;13.70;99.90;;;;;;5051229;28;20053;-76
2023/05/23 02:39:49;;;;;;;23.55;16.45;;;13.70;99.90;;;;;;5054149;28;20049;-75
2023/05/23 02:42:15;;;;;;;25.98;15.38;;;13.70;99.90;;;;;;5054164;28;20500;-75
2023/05/23 02:44:41;;;;;;;24.88;14.27;;;13.60;99.90;;;;;;5052930;28;20033;-75
2023/05/23 02:47:07;;;;;;;24.38;15.07;;;13.60;99.90;;;;;;5052819;28;20044;-75
2023/05/23 02:49:33;;;;;;;22.10;15.10;;;13.60;99.90;;;;;;5035912;28;20405;-76
2023/05/23 02:51:58;;;;;;;25.00;14.57;;;13.50;99.90;;;;;;5052489;28;20052;-76
2023/05/23 02:54:24;;;;;;;26.55;14.88;;;13.40;99.90;;;;;;5052710;28;20500;-76
2023/05/23 02:56:52;;;;;;;24.88;14.57;;;13.40;99.90;;;;;;5052647;28;20052;-76
2023/05/23 02:59:18;;;;;;;22.85;12.85;;;13.40;99.90;;;;;;5052592;28;20497;-75
2023/05/23 03:01:43;;;;;;;21.60;13.32;;;13.40;99.90;;;;;;5035562;28;20048;-76
2023/05/23 03:04:09;;;;;;;20.70;13.73;;;13.40;99.90;;;;;;5035575;28;20124;-76
2023/05/23 03:06:35;;;;;;;22.67;13.70;;;13.40;99.90;;;;;;5051839;28;20501;-75
2023/05/23 03:09:01;;;;;;;24.40;13.63;;;13.30;99.90;;;;;;5052346;28;20045;-75
2023/05/23 03:11:28;;;;;;;25.30;13.32;;;13.30;99.90;;;;;;5052404;28;20049;-75
2023/05/23 03:13:55;;;;;;;26.95;13.70;;;13.20;99.90;;;;;;5035586;28;20037;-76
2023/05/23 03:16:22;;;;;;;27.45;14.00;;;13.20;99.90;;;;;;5051903;28;20056;-76
2023/05/23 03:18:48;;;;;;;21.45;12.73;;;13.20;99.90;;;;;;5053269;28;20041;-76
2023/05/23 03:21:14;;;;;;;21.67;12.57;;;13.20;99.90;;;;;;5051958;28;20550;-76
2023/05/23 03:23:40;;;;;;;27.02;12.68;;;13.10;99.90;;;;;;5053511;28;20037;-76
2023/05/23 03:26:06;;;;;;;22.50;11.80;;;13.10;99.90;;;;;;5051965;28;20496;-76
2023/05/23 03:28:31;;;;;;;19.30;11.45;;;13.10;99.90;;;;;;5035624;28;20455;-76
2023/05/23 03:30:58;;;;;;;18.50;10.15;;;13.10;99.90;;;;;;5035255;28;20041;-76
2023/05/23 03:33:24;;;;;;;18.45;10.07;;;13.10;99.90;;;;;;5035138;28;20174;-77
2023/05/23 03:35:50;;;;;;;18.17;9.15;;;13.10;99.90;;;;;;5051872;28;20037;-77
2023/05/23 03:38:19;;;;;;;16.15;8.60;;;13.10;99.90;;;;;;5034663;28;20057;-77
2023/05/23 03:40:46;;;;;;;14.60;7.70;;;13.10;99.90;;;;;;5051780;28;20047;-77
2023/05/23 03:43:11;;;;;;;12.95;6.65;;;13.10;99.90;;;;;;5035296;28;20033;-77
2023/05/23 03:45:37;;;;;;;11.90;5.97;;;13.00;99.90;;;;;;5052884;28;20049;-77
2023/05/23 03:48:03;;;;;;;13.02;5.70;;;13.00;99.90;;;;;;5051327;28;20127;-77
2023/05/23 03:50:29;;;;;;;13.35;6.35;;;12.90;99.90;;;;;;5052837;28;20076;-78
2023/05/23 03:52:55;;;;;;;14.65;7.90;;;12.80;99.90;;;;;;5053264;28;20041;-78
2023/05/23 03:55:22;;;;;;;15.93;8.30;;;12.80;99.90;;;;;;5035176;28;20546;-78
2023/05/23 03:57:49;;;;;;;17.30;8.88;;;12.70;99.90;;;;;;5051485;28;20049;-77
2023/05/23 04:00:15;;;;;;;20.55;9.77;;;12.70;99.90;;;;;;5053138;28;20037;-77
2023/05/23 04:02:44;;;;;;;23.88;10.00;;;12.70;99.90;;;;;;5051564;28;20040;-77
2023/05/23 04:05:13;;;;;;;22.95;9.93;;;12.70;99.90;;;;;;5051442;28;20044;-77
2023/05/23 04:07:40;;;;;;;24.02;11.05;;;12.70;99.90;;;;;;5052211;28;20045;-77
2023/05/23 04:10:07;;;;;;;22.95;10.95;;;12.60;99.90;;;;;;5053051;28;20063;-77
2023/05/23 04:12:33;;;;;;;26.02;11.43;;;12.60;99.90;;;;;;5034684;28;20041;-76
2023/05/23 04:14:59;;;;;;;29.23;11.73;;;12.60;99.90;;;;;;5051647;28;20066;-76
2023/05/23 04:17:24;;;;;;;26.17;11.50;;;12.60;99.90;;;;;;5034744;28;20484;-76
2023/05/23 04:19:51;;;;;;;23.77;11.55;;;12.60;99.90;;;;;;5052803;28;20033;-77
2023/05/23 04:22:17;;;;;;;25.75;11.15;;;12.50;99.90;;;;;;5052808;28;20037;-77
2023/05/23 04:24:43;;;;;;;27.83;11.73;;;12.50;99.90;;;;;;5051577;28;20533;-77
2023/05/23 04:27:08;;;;;;;22.13;10.98;;;12.50;99.90;;;;;;5052627;28;20049;-77
2023/05/23 04:29:34;;;;;;;27.23;11.55;;;12.50;99.90;;;;;;5051570;28;20060;-77
2023/05/23 04:32:01;;;;;;;18.38;9.68;;;12.50;99.90;;;;;;5051585;28;20041;-76
2023/05/23 04:34:27;;;;;;;24.58;10.43;;;12.40;99.90;;;;;;5052619;28;20044;-76
2023/05/23 04:36:53;;;;;;;23.10;10.15;;;12.50;99.90;;;;;;5050693;28;20095;-75
2023/05/23 04:39:19;;;;;;;20.42;9.88;;;12.40;99.90;;;;;;5052391;28;20123;-76
2023/05/23 04:41:45;;;;;;;18.85;9.13;;;12.40;99.90;;;;;;5052696;28;20120;-76
2023/05/23 04:44:13;;;;;;;19.30;8.82;;;12.40;99.90;;;;;;5051392;28;20047;-75
2023/05/23 04:46:40;;;;;;;17.65;8.65;;;12.40;99.90;;;;;;5034661;28;20049;-75
2023/05/23 04:49:07;;;;;;;19.75;8.18;;;12.40;99.90;;;;;;5051186;28;20056;-76
2023/05/23 04:51:34;;;;;;;18.95;7.82;;;12.30;99.90;;;;;;5052587;28;20056;-77
2023/05/23 04:54:00;;;;;;;19.25;7.97;;;12.30;99.90;;;;;;5052530;28;20400;-77
2023/05/23 04:56:27;;;;;;;17.60;7.68;;;12.30;99.90;;;;;;5018143;28;20049;-77
2023/05/23 04:58:53;;;;;;;15.00;7.63;;;12.40;99.90;;;;;;5050974;28;20041;-77
2023/05/23 05:01:19;;;;;;;16.33;8.10;;;12.30;99.90;;;;;;5053516;28;20448;-77
2023/05/23 05:03:46;;;;;;;19.13;8.32;;;12.30;99.90;;;;;;5038415;28;20044;-77
2023/05/23 05:06:13;;;;;;;16.27;7.68;;;12.40;99.90;;;;;;5054025;28;20045;-77
2023/05/23 05:08:39;;;;;;;18.20;8.20;;;12.30;99.90;;;;;;5037903;28;20040;-77
2023/05/23 05:11:05;;;;;;;18.30;7.68;;;12.30;99.90;;;;;;5054466;28;20037;-77
2023/05/23 05:13:31;;;;;;;21.08;7.15;;;12.30;99.90;;;;;;5055790;28;20043;-77
2023/05/23 05:15:57;;;;;;;19.17;6.72;;;12.30;99.90;;;;;;5055672;28;20094;-75
2023/05/23 05:18:26;;;;;;;20.25;6.93;;;12.20;99.90;;;;;;5055761;28;20155;-75
2023/05/23 05:20:52;;;;;;;22.88;7.40;;;12.20;99.90;;;;;;5054300;28;20099;-77
2023/05/23 05:23:18;;;;;;;22.38;7.47;;;12.20;99.90;;;;;;5004875;28;20492;-77
2023/05/23 05:25:44;;;;;;;19.08;6.82;;;12.20;99.90;;;;;;5037763;28;20037;-76
2023/05/23 05:28:10;;;;;;;17.88;6.68;;;12.20;99.90;;;;;;5054122;28;20045;-76
2023/05/23 05:30:37;;;;;;;19.10;6.78;;;12.20;99.90;;;;;;5054419;28;20045;-75
2023/05/23 05:33:04;;;;;;;18.55;7.10;;;12.20;99.90;;;;;;5053889;28;20060;-76
2023/05/23 05:35:33;;;;;;;20.70;6.65;;;12.20;99.90;;;;;;5055489;28;20079;-76
2023/05/23 05:38:03;;;;;;;16.98;6.10;;;12.20;99.90;;;;;;5053343;28;20081;-77
2023/05/23 05:40:30;;;;;;;17.60;5.68;;;12.10;99.90;;;;;;5054161;28;20032;-76
2023/05/23 05:42:59;;;;;;;19.38;6.63;;;12.10;99.90;;;;;;5037792;28;20037;-76
2023/05/23 05:45:25;;;;;;;22.05;7.05;;;12.10;99.90;;;;;;5053931;28;20055;-76
2023/05/23 05:47:51;;;;;;;20.67;7.10;;;12.10;99.90;;;;;;5054002;28;20091;-76
2023/05/23 05:50:19;;;;;;;17.92;6.60;;;12.00;99.90;;;;;;5053640;28;20045;-76
2023/05/23 05:52:45;;;;;;;17.17;7.22;;;12.00;99.90;;;;;;5037325;28;20037;-76
2023/05/23 05:55:10;;;;;;;17.95;7.03;;;12.00;99.90;;;;;;5054822;28;20066;-76
2023/05/23 05:57:37;;;;;;;21.00;7.43;;;12.00;99.90;;;;;;5037061;28;20485;-77
2023/05/23 06:00:14;;;;;;;20.33;7.68;;;11.90;99.90;;;;;;5054830;28;20063;-77
2023/05/23 06:02:43;;;;;;;16.95;7.05;;;11.90;99.90;;;;;;5036997;28;20485;-77
2023/05/23 06:05:15;;;;;;;17.65;7.82;;;12.00;99.90;;;;;;5053683;28;20048;-77
2023/05/23 06:07:41;;;;;;;16.33;7.50;;;12.00;99.90;;;;;;5020718;28;20049;-77
2023/05/23 06:10:08;;;;;;;19.45;8.00;;;11.90;99.90;;;;;;5054741;28;20075;-77
2023/05/23 06:12:40;;;;;;;16.98;7.82;;;11.80;99.90;;;;;;5054337;28;20043;-77
2023/05/23 06:15:07;;;;;;;18.92;7.97;;;11.80;99.90;;;;;;5053096;28;20041;-77
2023/05/23 06:17:32;;;;;;;20.85;8.73;;;11.70;99.90;;;;;;5053595;28;20041;-77
2023/05/23 06:19:58;;;;;;;20.83;8.95;;;11.70;99.90;;;;;;5053039;28;20082;-77
2023/05/23 06:22:24;;;;;;;20.83;8.68;;;11.70;99.90;;;;;;5054480;28;20037;-76
2023/05/23 06:24:52;;;;;;;21.83;9.00;;;11.70;99.90;;;;;;5053239;28;20047;-76
2023/05/23 06:27:18;;;;;;;16.98;8.68;;;11.60;99.90;;;;;;5053250;28;20084;-76
2023/05/23 06:29:44;;;;;;;21.05;8.70;;;11.60;99.90;;;;;;5052803;28;20150;-76
2023/05/23 06:32:09;;;;;;;20.67;9.05;;;11.60;99.90;;;;;;5052834;28;20523;-76
2023/05/23 06:34:35;;;;;;;19.02;8.02;;;11.60;99.90;;;;;;5036176;28;20049;-76
2023/05/23 06:37:01;;;;;;;19.98;8.70;;;11.60;99.90;;;;;;5053501;28;20058;-76
2023/05/23 06:39:27;;;;;;;23.00;9.15;;;11.60;99.90;;;;;;5053032;28;20029;-76
2023/05/23 06:41:55;;;;;;;21.40;8.02;;;11.60;99.90;;;;;;5036045;28;20037;-76
2023/05/23 06:44:21;;;;;;;20.45;8.23;;;11.50;99.90;;;;;;5052906;28;20048;-76
2023/05/23 06:46:47;;;;;;;20.35;7.90;;;11.50;99.90;;;;;;5053936;28;20049;-76
2023/05/23 06:49:14;;;;;;;22.98;8.30;;;11.50;99.90;;;;;;5052573;28;20041;-76
2023/05/23 06:51:40;;;;;;;20.92;8.00;;;11.50;99.90;;;;;;5052583;28;20083;-76
2023/05/23 06:54:05;;;;;;;18.48;7.85;;;11.50;99.90;;;;;;5052297;28;20099;-76
2023/05/23 06:56:31;;;;;;;18.65;7.43;;;11.50;99.90;;;;;;5035818;28;20122;-75
2023/05/23 06:58:57;;;;;;;18.52;7.20;;;11.50;99.90;;;;;;5052495;28;20144;-75
2023/05/23 07:01:23;;;;;;;15.18;5.95;;;11.50;99.90;;;;;;5052358;28;20059;-75
2023/05/23 07:03:48;;;;;;;16.23;5.70;;;11.50;99.90;;;;;;5035659;28;20041;-75
2023/05/23 07:06:15;;;;;;;15.43;5.00;;;11.50;99.90;;;;;;5053026;28;20396;-75
2023/05/23 07:08:40;;;;;;;16.83;4.93;;;11.50;99.90;;;;;;5035812;28;20037;-75
2023/05/23 07:11:06;;;;;;;17.13;4.93;;;11.50;99.90;;;;;;5053429;28;20071;-76
2023/05/23 07:13:32;;;;;;;15.90;5.28;;;11.50;99.90;;;;;;5035749;28;20079;-75
2023/05/23 07:15:58;;;;;;;15.38;4.95;;;11.60;99.90;;;;;;5053493;28;20041;-76
2023/05/23 07:18:24;;;;;;;19.08;5.18;;;11.60;99.90;;;;;;5052043;28;20048;-75
2023/05/23 07:20:50;;;;;;;17.10;4.70;;;11.60;99.90;;;;;;5053317;28;20047;-75
2023/05/23 07:23:16;;;;;;;15.98;4.70;;;11.60;99.90;;;;;;5051586;28;20044;-75
2023/05/23 07:25:43;;;;;;;15.07;4.70;;;11.70;99.90;;;;;;5052149;28;20048;-75
2023/05/23 07:28:09;;;;;;;16.38;4.85;;;11.70;99.90;;;;;;5051871;28;20045;-74
2023/05/23 07:30:35;;;;;;;15.35;4.97;;;11.70;99.90;;;;;;5035408;28;20048;-74
2023/05/23 07:33:01;;;;;;;17.83;4.85;;;11.80;99.90;;;;;;5052045;28;20485;-75
2023/05/23 07:35:27;;;;;;;15.98;4.70;;;11.80;99.90;;;;;;5052877;28;20246;-75
2023/05/23 07:37:53;;;;;;;19.55;4.82;;;11.80;99.90;;;;;;5052404;28;20064;-75
2023/05/23 07:40:19;;;;;;;17.58;4.88;;;11.80;99.90;;;;;;5035285;28;20041;-75
2023/05/23 07:42:45;;;;;;;18.38;4.88;;;11.90;99.90;;;;;;5035167;28;20090;-75
2023/05/23 07:45:11;;;;;;;16.02;4.95;;;11.80;99.90;;;;;;5052109;28;20370;-77
2023/05/23 07:47:37;;;;;;;17.25;5.07;;;11.80;99.90;;;;;;5035232;28;20098;-77
2023/05/23 07:50:06;;;;;;;18.52;4.63;;;11.90;99.90;;;;;;5034966;28;20496;-77
2023/05/23 07:52:32;;;;;;;20.05;4.80;;;12.10;99.90;;;;;;5051714;28;20052;-76
2023/05/23 07:54:58;;;;;;;19.70;4.68;;;12.10;99.90;;;;;;5051611;28;20041;-77
2023/05/23 07:57:25;;;;;;;17.10;4.55;;;12.10;99.90;;;;;;5034604;28;20488;-77
2023/05/23 07:59:52;;;;;;;19.05;4.95;;;12.00;99.90;;;;;;5035109;28;20091;-75
2023/05/23 08:02:21;;;;;;;24.42;5.70;;;12.00;99.90;;;;;;5051626;28;20037;-76
2023/05/23 08:04:47;;;;;;;18.77;5.18;;;12.00;99.90;;;;;;5035413;28;20040;-76
2023/05/23 08:07:22;;;;;;;21.88;5.10;;;12.00;99.90;;;;;;5051050;28;20041;-76
2023/05/23 08:09:47;;;;;;;16.63;4.82;;;12.10;99.90;;;;;;5018892;28;20048;-76
2023/05/23 08:12:13;;;;;;;19.95;4.60;;;12.10;99.90;;;;;;5034987;28;20128;-76
2023/05/23 08:14:39;;;;;;;21.10;4.65;;;12.00;99.90;;;;;;5051391;28;20488;-76
2023/05/23 08:17:05;;;;;;;18.75;4.68;;;12.00;99.90;;;;;;5051725;28;20110;-76
2023/05/23 08:19:31;;;;;;;17.48;4.15;;;12.10;99.90;;;;;;5051298;28;20041;-76
2023/05/23 08:27:24;;;;;;;19.88;4.28;;;12.20;99.90;;;;;;5090511;28;20426;-77
2023/05/23 08:29:54;;;;;;;18.38;4.35;;;12.20;99.90;;;;;;5056046;28;20106;-75
2023/05/23 08:32:22;;;;;;;17.30;4.43;;;12.20;99.90;;;;;;5072708;28;20138;-76
2023/05/23 08:34:48;;;;;;;20.90;4.38;;;12.40;99.90;;;;;;5072347;28;20045;-78
2023/05/23 08:37:14;;;;;;;17.65;4.45;;;12.40;99.90;;;;;;5072940;28;20066;-76
2023/05/23 08:39:40;;;;;;;16.38;4.47;;;12.50;99.90;;;;;;5055562;28;20064;-76
2023/05/23 08:42:06;;;;;;;17.85;4.47;;;12.50;99.90;;;;;;5072561;28;20040;-76
2023/05/23 08:44:32;;;;;;;17.05;4.13;;;12.60;99.90;;;;;;5072244;28;20052;-76
2023/05/23 08:47:04;;;;;;;17.75;4.13;;;12.70;99.90;;;;;;5055424;28;20032;-76
2023/05/23 08:49:30;;;;;;;15.40;3.92;;;12.70;99.90;;;;;;5072257;28;20114;-76
2023/05/23 08:52:00;;;;;;;19.33;4.47;;;12.70;99.90;;;;;;5072364;28;20373;-76
2023/05/23 08:54:28;;;;;;;16.90;4.07;;;12.70;99.90;;;;;;5090447;28;20036;-76
2023/05/23 08:56:54;;;;;;;16.52;4.63;;;12.80;99.90;;;;;;5072158;28;20055;-75
2023/05/23 08:59:21;;;;;;;15.23;4.30;;;13.00;99.90;;;;;;5071788;28;20105;-75
2023/05/23 09:01:48;;;;;;;15.55;4.45;;;13.20;99.90;;;;;;5071960;28;20051;-76
2023/05/23 09:04:14;;;;;;;15.40;3.92;;;13.30;99.90;;;;;;5071882;28;20044;-76
2023/05/23 09:06:40;;;;;;;17.17;4.40;;;13.40;99.90;;;;;;5071952;28;20040;-76
2023/05/23 09:09:06;;;;;;;18.15;4.28;;;13.50;99.90;;;;;;5038881;28;20067;-75
2023/05/23 09:11:33;;;;;;;19.63;4.30;;;13.80;99.90;;;;;;5038636;28;20072;-76
2023/05/23 09:13:58;;;;;;;19.25;4.50;;;13.90;99.90;;;;;;5055510;28;20487;-77
2023/05/23 09:16:32;;;;;;;17.30;4.50;;;13.90;99.90;;;;;;5055036;28;20101;-75
2023/05/23 09:18:58;;;;;;;20.15;4.72;;;14.10;99.90;;;;;;5038382;28;20036;-75
2023/05/23 09:21:24;;;;;;;16.05;4.38;;;14.10;99.90;;;;;;5071726;28;20097;-75
2023/05/23 09:23:51;;;;;;;16.05;4.05;;;14.20;99.90;;;;;;5071428;28;20048;-76
2023/05/23 09:26:16;;;;;;;15.68;4.13;;;14.30;99.90;;;;;;5054509;28;20110;-76
2023/05/23 09:28:43;;;;;;;14.73;3.72;;;14.20;99.90;;;;;;5071516;28;20040;-76
2023/05/23 09:31:09;;;;;;;16.80;4.10;;;14.20;99.90;;;;;;5055157;28;20480;-76
2023/05/23 09:33:48;;;;;;;18.02;4.38;;;14.30;99.90;;;;;;5054603;28;20119;-76
2023/05/23 09:36:29;;;;;;;17.35;4.07;;;14.20;99.90;;;;;;5071375;28;20071;-76
2023/05/23 09:38:55;;;;;;;16.35;4.43;;;14.00;99.90;;;;;;5040803;28;20048;-75
2023/05/23 09:41:21;;;;;;;18.23;4.40;;;14.00;99.90;;;;;;5057804;28;20040;-76
2023/05/23 09:43:51;;;;;;;18.23;4.15;;;13.90;99.90;;;;;;5075895;28;20040;-76
2023/05/23 09:46:18;;;;;;;15.77;4.10;;;13.80;99.90;;;;;;5041114;28;20045;-75
2023/05/23 09:48:50;;;;;;;17.48;4.32;;;13.80;99.90;;;;;;5057577;28;20040;-76
2023/05/23 09:51:19;;;;;;;17.70;4.47;;;13.70;99.90;;;;;;5041669;28;20036;-75
2023/05/23 09:53:46;;;;;;;19.88;4.40;;;13.60;99.90;;;;;;5041172;28;20072;-75
2023/05/23 09:56:12;;;;;;;17.00;4.30;;;13.60;99.90;;;;;;5041148;28;20037;-75
2023/05/23 09:58:39;;;;;;;18.20;4.53;;;13.80;99.90;;;;;;5057644;28;20492;-78
2023/05/23 10:01:09;;;;;;;18.33;4.57;;;13.80;99.90;;;;;;5057652;28;20117;-75
2023/05/23 10:03:48;;;;;;;16.33;4.47;;;14.00;99.90;;;;;;5057217;28;20044;-76
2023/05/23 10:06:25;;;;;;;17.02;4.70;;;14.10;99.90;;;;;;5057449;28;20049;-75
2023/05/23 10:09:03;;;;;;;19.17;4.50;;;14.20;99.90;;;;;;5057774;28;20037;-76
2023/05/23 10:11:32;;;;;;;16.15;4.50;;;14.40;99.90;;;;;;5057239;28;20040;-76
2023/05/23 10:14:06;;;;;;;15.80;4.13;;;14.50;99.90;;;;;;5040561;28;20041;-76
2023/05/23 10:17:07;;;;;;;19.33;4.78;;;14.50;99.90;;;;;;5057814;28;20484;-76
2023/05/23 10:19:36;;;;;;;13.65;3.90;;;14.40;99.90;;;;;;5040919;28;20044;-75
2023/05/23 10:22:05;;;;;;;15.63;4.00;;;14.40;99.90;;;;;;5057090;28;20070;-75
2023/05/23 10:24:33;;;;;;;17.90;4.53;;;14.50;99.90;;;;;;5057102;28;20044;-77
2023/05/23 10:26:59;;;;;;;14.65;3.95;;;14.70;99.90;;;;;;5053615;28;20049;-76
2023/05/23 10:29:26;;;;;;;15.32;4.00;;;14.80;99.90;;;;;;5053736;28;20060;-76
2023/05/23 10:31:53;;;;;;;19.13;4.10;;;14.70;99.90;;;;;;5037223;28;20041;-76
2023/05/23 10:34:46;;;;;;;13.38;3.80;;;14.70;99.90;;;;;;5037198;28;20045;-74
2023/05/23 10:37:32;;;;;;;16.17;3.90;;;14.80;99.90;;;;;;5054079;28;20052;-75
2023/05/23 10:40:33;;;;;;;14.57;3.90;;;14.70;99.90;;;;;;5013411;28;20060;-74
2023/05/23 10:43:05;;;;;;;17.30;4.07;;;14.80;99.90;;;;;;5023511;28;20395;-76
2023/05/23 10:45:41;;;;;;;17.00;4.10;;;14.70;99.90;;;;;;5053287;28;20044;-76
2023/05/23 10:48:20;;;;;;;15.13;4.18;;;14.60;99.90;;;;;;5036926;28;20388;-75
2023/05/23 10:51:02;;;;;;;15.27;4.03;;;14.70;99.90;;;;;;5052681;28;20037;-75
2023/05/23 10:53:32;;;;;;;13.23;3.85;;;14.80;99.90;;;;;;5053527;28;20044;-76
2023/05/23 10:55:59;;;;;;;15.70;3.70;;;14.80;99.90;;;;;;5004680;28;20071;-76
2023/05/23 10:58:28;;;;;;;16.95;4.20;;;14.70;99.90;;;;;;5053081;28;20045;-75
2023/05/23 11:01:01;;;;;;;13.38;3.67;;;14.70;99.90;;;;;;5053324;28;20417;-76
2023/05/23 11:03:46;;;;;;;16.75;3.60;;;14.60;99.90;;;;;;5036556;28;20053;-76
2023/05/23 11:06:32;;;;;;;15.18;3.75;;;14.80;99.90;;;;;;5036619;28;20048;-75
2023/05/23 11:09:12;;;;;;;15.35;3.60;;;14.80;99.90;;;;;;5053102;28;20400;-75
2023/05/23 11:11:53;;;;;;;14.82;3.60;;;14.70;99.90;;;;;;5053089;28;20377;-76
2023/05/23 11:14:52;;;;;;;16.05;3.60;;;14.80;99.90;;;;;;5052679;28;20037;-76
2023/05/23 11:17:29;;;;;;;13.30;3.58;;;14.80;99.90;;;;;;5036308;28;20047;-75
2023/05/23 11:20:06;;;;;;;12.25;3.25;;;14.90;99.90;;;;;;5036037;28;20056;-75
2023/05/23 11:22:36;;;;;;;14.40;3.47;;;15.20;99.90;;;;;;5036156;28;20049;-75
2023/05/23 11:25:07;;;;;;;12.80;3.63;;;15.40;99.90;;;;;;5053216;28;20395;-75
2023/05/23 11:27:39;;;;;;;14.30;3.47;;;15.40;99.90;;;;;;5039464;28;20071;-76
2023/05/23 11:30:12;;;;;;;13.07;3.38;;;15.50;99.90;;;;;;5039460;28;20118;-75
2023/05/23 11:32:38;;;;;;;15.25;3.90;;;15.30;99.90;;;;;;5055647;28;20045;-75
2023/05/23 11:35:10;;;;;;;12.65;3.60;;;15.20;99.90;;;;;;5039375;28;20439;-75
2023/05/23 11:37:39;;;;;;;13.73;3.75;;;15.20;99.90;;;;;;5039369;28;20036;-76
2023/05/23 11:40:24;;;;;;;14.57;3.70;;;14.90;99.90;;;;;;5055800;28;20569;-75
2023/05/23 11:42:50;;;;;;;13.77;3.40;;;14.90;99.90;;;;;;5038962;28;20047;-75
2023/05/23 11:45:22;;;;;;;12.48;3.63;;;14.80;99.90;;;;;;5055661;28;20458;-75
2023/05/23 11:47:51;;;;;;;15.00;3.88;;;14.70;99.90;;;;;;5039138;28;20410;-75
2023/05/23 11:50:19;;;;;;;12.13;3.40;;;14.60;99.90;;;;;;5038825;28;20049;-75
2023/05/23 11:52:50;;;;;;;13.50;3.08;;;14.50;99.90;;;;;;5055361;28;20075;-75
2023/05/23 11:55:18;;;;;;;12.77;3.17;;;14.70;99.90;;;;;;5055510;28;20511;-75
2023/05/23 11:57:45;;;;;;;14.15;3.60;;;14.80;99.90;;;;;;5039472;28;20495;-76
2023/05/23 12:00:12;;;;;;;14.48;3.67;;;14.70;99.60;;;;;;5038634;28;20044;-76
2023/05/23 12:02:42;;;;;;;15.38;3.75;;;14.60;99.90;;;;;;5022647;28;20037;-75
2023/05/23 12:05:13;;;;;;;14.38;3.38;;;14.60;99.90;;;;;;5039135;28;20511;-75
2023/05/23 12:07:46;;;;;;;16.45;3.50;;;14.60;99.90;;;;;;5039178;28;20066;-75
2023/05/23 12:10:14;;;;;;;14.57;3.45;;;14.60;99.90;;;;;;5055135;28;20123;-75
2023/05/23 12:12:41;;;;;;;12.90;3.55;;;14.80;99.90;;;;;;5055362;28;20388;-75
2023/05/23 12:15:08;;;;;;;13.07;2.97;;;14.90;99.90;;;;;;5038932;28;20135;-76
2023/05/23 12:17:43;;;;;;;14.75;3.42;;;15.10;99.60;;;;;;5038458;28;20040;-75
2023/05/23 12:20:10;;;;;;;14.27;3.50;;;15.00;99.80;;;;;;5038721;28;20126;-75
2023/05/23 12:22:37;;;;;;;14.63;3.45;;;14.80;99.90;;;;;;5055097;28;20068;-75
2023/05/23 12:25:07;;;;;;;13.30;3.20;;;14.70;99.90;;;;;;5054956;28;20094;-75
2023/05/23 12:27:34;;;;;;;15.50;3.80;;;14.50;98.50;;;;;;5054862;28;20098;-75
2023/05/23 12:30:13;;;;;;;16.80;3.60;;;14.70;99.90;;;;;;5055199;28;20101;-76
2023/05/23 12:32:40;;;;;;;15.43;3.53;;;14.90;98.20;;;;;;5038427;28;20036;-75
2023/05/23 12:35:14;;;;;;;16.27;3.70;;;14.80;99.40;;;;;;5055151;28;20099;-75
2023/05/23 12:37:47;;;;;;;14.57;3.40;;;14.70;99.60;;;;;;5038602;28;20040;-75
2023/05/23 12:40:17;;;;;;;11.82;3.40;;;14.60;98.10;;;;;;5039003;28;20041;-76
2023/05/23 12:42:56;;;;;;;13.40;3.25;;;14.70;97.80;;;;;;5038376;28;20051;-76
2023/05/23 12:45:35;;;;;;;13.38;3.22;;;15.00;98.10;;;;;;5054745;28;20032;-75